Main page
METAR-TAF:

METAR-TAF

Airports :

Lyon–Bron Airport

Lyon, France

latitude: 45-43N, longitude: 004-57E, elevation: 200 m

Current weather observation

The report was made 12 minutes ago, at 01:30 UTC
Wind 16 kt from the North/Northwest
Temperature 16°C
Humidity 59%
Pressure 1021 hPa
Visibility 10 km or more
no clouds below 1500 m and no cumulonimbus

METAR: LFLY 220130Z AUTO 34016KT CAVOK 16/08 Q1021 NOSIG

Time: 03:42 (01:42 UTC)

Forecast

The report was made 2 hours and 42 minutes ago, at 23:00 UTC
Forecast valid from 22 at 00 UTC to 22 at 24 UTC
Wind 12 kt from the North
Visibility 10 km or more
no clouds below 1500 m and no cumulonimbus
Becoming
from 22 at 08 UTC to 22 at 11 UTC
Wind 17 kt from the North with gusts up to 30 kt
Becoming
from 22 at 19 UTC to 22 at 22 UTC
Wind 12 kt from the North

TAF: LFLY 212300Z 2200/2224 35012KT CAVOK BECMG 2208/2211 36017G30KT BECMG 2219/2222 35012KT

Weather observations and forecasts of more than 4000 airports (METAR and TAF reports).

The available stations are represented by yellow and red dots on the map.

Hover mouse over dot to see the name of the station.

Then click to see weather observations and forecasts.

To change the map : click on the green buttons with a black cross to zoom in, on the green button with a dash to zoom out, or on the green arrows for adjacent maps.


METAR-TAF: